sensor_id;sensor_type;location;lat;lon;timestamp;P1;durP1;ratioP1;P2;durP2;ratioP2
27957;SDS011;15295;42.658;23.374;2023-10-08T00:02:08;8.25;;;4.70;;
27957;SDS011;15295;42.658;23.374;2023-10-08T00:04:35;8.85;;;4.13;;
27957;SDS011;15295;42.658;23.374;2023-10-08T00:07:22;7.55;;;3.67;;
27957;SDS011;15295;42.658;23.374;2023-10-08T00:09:51;10.25;;;4.03;;
27957;SDS011;15295;42.658;23.374;2023-10-08T00:12:17;10.85;;;4.97;;
27957;SDS011;15295;42.658;23.374;2023-10-08T00:14:44;8.93;;;4.15;;
27957;SDS011;15295;42.658;23.374;2023-10-08T00:17:16;12.32;;;4.65;;
27957;SDS011;15295;42.658;23.374;2023-10-08T00:22:26;8.57;;;4.45;;
27957;SDS011;15295;42.658;23.374;2023-10-08T00:24:53;9.60;;;4.20;;
27957;SDS011;15295;42.658;23.374;2023-10-08T00:27:29;8.75;;;3.80;;
27957;SDS011;15295;42.658;23.374;2023-10-08T00:30:04;12.27;;;4.28;;
27957;SDS011;15295;42.658;23.374;2023-10-08T00:35:06;8.77;;;4.15;;
27957;SDS011;15295;42.658;23.374;2023-10-08T00:40:41;7.13;;;3.90;;
27957;SDS011;15295;42.658;23.374;2023-10-08T00:43:11;8.27;;;3.70;;
27957;SDS011;15295;42.658;23.374;2023-10-08T00:45:58;7.40;;;3.72;;
27957;SDS011;15295;42.658;23.374;2023-10-08T00:54:01;8.32;;;3.70;;
27957;SDS011;15295;42.658;23.374;2023-10-08T00:56:34;7.45;;;3.85;;
27957;SDS011;15295;42.658;23.374;2023-10-08T00:59:33;8.23;;;4.18;;
27957;SDS011;15295;42.658;23.374;2023-10-08T01:02:15;7.95;;;4.03;;
27957;SDS011;15295;42.658;23.374;2023-10-08T01:04:45;11.02;;;4.20;;
27957;SDS011;15295;42.658;23.374;2023-10-08T01:07:11;7.18;;;3.85;;
27957;SDS011;15295;42.658;23.374;2023-10-08T01:09:42;8.93;;;4.50;;
27957;SDS011;15295;42.658;23.374;2023-10-08T01:14:43;10.65;;;5.03;;
27957;SDS011;15295;42.658;23.374;2023-10-08T01:17:09;8.68;;;4.60;;
27957;SDS011;15295;42.658;23.374;2023-10-08T01:19:40;12.50;;;5.32;;
27957;SDS011;15295;42.658;23.374;2023-10-08T01:22:07;12.70;;;5.10;;
27957;SDS011;15295;42.658;23.374;2023-10-08T01:24:38;11.77;;;4.78;;
27957;SDS011;15295;42.658;23.374;2023-10-08T01:27:03;9.82;;;4.53;;
27957;SDS011;15295;42.658;23.374;2023-10-08T01:29:38;9.85;;;4.68;;
27957;SDS011;15295;42.658;23.374;2023-10-08T01:32:04;7.68;;;3.72;;
27957;SDS011;15295;42.658;23.374;2023-10-08T01:34:36;9.48;;;3.50;;
27957;SDS011;15295;42.658;23.374;2023-10-08T01:37:02;9.75;;;3.83;;
27957;SDS011;15295;42.658;23.374;2023-10-08T01:39:35;12.65;;;4.32;;
27957;SDS011;15295;42.658;23.374;2023-10-08T01:42:01;8.50;;;4.32;;
27957;SDS011;15295;42.658;23.374;2023-10-08T01:44:27;8.85;;;3.50;;
27957;SDS011;15295;42.658;23.374;2023-10-08T01:49:36;9.73;;;4.28;;
27957;SDS011;15295;42.658;23.374;2023-10-08T01:54:38;9.50;;;3.55;;
27957;SDS011;15295;42.658;23.374;2023-10-08T01:57:03;7.53;;;3.78;;
27957;SDS011;15295;42.658;23.374;2023-10-08T01:59:31;8.80;;;4.30;;
27957;SDS011;15295;42.658;23.374;2023-10-08T02:01:57;8.02;;;3.95;;
27957;SDS011;15295;42.658;23.374;2023-10-08T02:04:23;7.03;;;4.20;;
27957;SDS011;15295;42.658;23.374;2023-10-08T02:06:48;8.88;;;3.90;;
27957;SDS011;15295;42.658;23.374;2023-10-08T02:09:27;8.65;;;4.20;;
27957;SDS011;15295;42.658;23.374;2023-10-08T02:11:53;8.93;;;4.32;;
27957;SDS011;15295;42.658;23.374;2023-10-08T02:14:19;8.10;;;3.97;;
27957;SDS011;15295;42.658;23.374;2023-10-08T02:16:45;9.95;;;4.07;;
27957;SDS011;15295;42.658;23.374;2023-10-08T02:19:11;7.28;;;3.42;;
27957;SDS011;15295;42.658;23.374;2023-10-08T02:21:38;6.47;;;3.28;;
27957;SDS011;15295;42.658;23.374;2023-10-08T02:24:08;9.25;;;3.55;;
27957;SDS011;15295;42.658;23.374;2023-10-08T02:26:37;8.82;;;3.20;;
27957;SDS011;15295;42.658;23.374;2023-10-08T02:29:06;7.13;;;3.13;;
27957;SDS011;15295;42.658;23.374;2023-10-08T02:34:05;6.95;;;3.65;;
27957;SDS011;15295;42.658;23.374;2023-10-08T02:36:37;9.32;;;4.45;;
27957;SDS011;15295;42.658;23.374;2023-10-08T02:39:12;7.28;;;3.97;;
27957;SDS011;15295;42.658;23.374;2023-10-08T02:41:43;6.40;;;3.50;;
27957;SDS011;15295;42.658;23.374;2023-10-08T02:44:12;8.27;;;4.00;;
27957;SDS011;15295;42.658;23.374;2023-10-08T02:46:42;7.57;;;4.03;;
27957;SDS011;15295;42.658;23.374;2023-10-08T02:49:12;7.93;;;4.25;;
27957;SDS011;15295;42.658;23.374;2023-10-08T02:51:50;7.88;;;4.05;;
27957;SDS011;15295;42.658;23.374;2023-10-08T02:54:20;10.80;;;4.80;;
27957;SDS011;15295;42.658;23.374;2023-10-08T02:59:14;9.27;;;5.13;;
27957;SDS011;15295;42.658;23.374;2023-10-08T03:01:40;9.63;;;4.60;;
27957;SDS011;15295;42.658;23.374;2023-10-08T03:04:06;11.70;;;4.85;;
27957;SDS011;15295;42.658;23.374;2023-10-08T03:06:42;13.07;;;4.70;;
27957;SDS011;15295;42.658;23.374;2023-10-08T03:09:08;14.52;;;6.05;;
27957;SDS011;15295;42.658;23.374;2023-10-08T03:11:33;10.45;;;4.72;;
27957;SDS011;15295;42.658;23.374;2023-10-08T03:14:01;9.45;;;4.93;;
27957;SDS011;15295;42.658;23.374;2023-10-08T03:16:26;9.27;;;4.93;;
27957;SDS011;15295;42.658;23.374;2023-10-08T03:19:00;9.77;;;4.72;;
27957;SDS011;15295;42.658;23.374;2023-10-08T03:21:27;9.52;;;4.75;;
27957;SDS011;15295;42.658;23.374;2023-10-08T03:24:02;9.98;;;5.15;;
27957;SDS011;15295;42.658;23.374;2023-10-08T03:26:37;9.27;;;4.63;;
27957;SDS011;15295;42.658;23.374;2023-10-08T03:29:04;10.98;;;4.97;;
27957;SDS011;15295;42.658;23.374;2023-10-08T03:31:32;9.90;;;4.45;;
27957;SDS011;15295;42.658;23.374;2023-10-08T03:34:14;9.00;;;4.90;;
27957;SDS011;15295;42.658;23.374;2023-10-08T03:36:41;9.23;;;4.45;;
27957;SDS011;15295;42.658;23.374;2023-10-08T03:39:10;10.65;;;4.65;;
27957;SDS011;15295;42.658;23.374;2023-10-08T03:41:40;8.47;;;4.50;;
27957;SDS011;15295;42.658;23.374;2023-10-08T03:44:06;9.95;;;4.72;;
27957;SDS011;15295;42.658;23.374;2023-10-08T03:46:39;9.93;;;4.90;;
27957;SDS011;15295;42.658;23.374;2023-10-08T03:49:06;10.13;;;5.20;;
27957;SDS011;15295;42.658;23.374;2023-10-08T03:51:46;8.50;;;4.53;;
27957;SDS011;15295;42.658;23.374;2023-10-08T03:54:13;13.18;;;4.60;;
27957;SDS011;15295;42.658;23.374;2023-10-08T03:56:43;9.27;;;4.70;;
27957;SDS011;15295;42.658;23.374;2023-10-08T03:59:16;11.48;;;5.10;;
27957;SDS011;15295;42.658;23.374;2023-10-08T04:02:06;11.77;;;5.82;;
27957;SDS011;15295;42.658;23.374;2023-10-08T04:04:49;11.60;;;5.55;;
27957;SDS011;15295;42.658;23.374;2023-10-08T04:07:22;9.63;;;4.75;;
27957;SDS011;15295;42.658;23.374;2023-10-08T04:10:09;13.07;;;5.53;;
27957;SDS011;15295;42.658;23.374;2023-10-08T04:12:35;10.90;;;4.68;;
27957;SDS011;15295;42.658;23.374;2023-10-08T04:15:05;8.55;;;4.20;;
27957;SDS011;15295;42.658;23.374;2023-10-08T04:17:37;12.25;;;4.60;;
27957;SDS011;15295;42.658;23.374;2023-10-08T04:25:38;8.18;;;4.30;;
27957;SDS011;15295;42.658;23.374;2023-10-08T04:28:07;8.45;;;4.40;;
27957;SDS011;15295;42.658;23.374;2023-10-08T04:30:40;10.52;;;4.60;;
27957;SDS011;15295;42.658;23.374;2023-10-08T04:33:07;9.90;;;4.03;;
27957;SDS011;15295;42.658;23.374;2023-10-08T04:35:37;12.50;;;4.93;;
27957;SDS011;15295;42.658;23.374;2023-10-08T04:38:20;14.75;;;5.55;;
27957;SDS011;15295;42.658;23.374;2023-10-08T04:40:54;10.20;;;4.55;;
27957;SDS011;15295;42.658;23.374;2023-10-08T04:43:21;12.93;;;5.30;;
27957;SDS011;15295;42.658;23.374;2023-10-08T04:46:02;12.73;;;5.85;;
27957;SDS011;15295;42.658;23.374;2023-10-08T04:48:33;24.85;;;11.00;;
27957;SDS011;15295;42.658;23.374;2023-10-08T04:51:03;19.95;;;9.27;;
27957;SDS011;15295;42.658;23.374;2023-10-08T04:53:30;17.98;;;6.65;;
27957;SDS011;15295;42.658;23.374;2023-10-08T04:56:02;14.55;;;6.28;;
27957;SDS011;15295;42.658;23.374;2023-10-08T04:58:38;16.00;;;6.80;;
27957;SDS011;15295;42.658;23.374;2023-10-08T05:01:17;16.60;;;5.70;;
27957;SDS011;15295;42.658;23.374;2023-10-08T05:03:49;19.75;;;9.73;;
27957;SDS011;15295;42.658;23.374;2023-10-08T05:08:54;19.10;;;6.80;;
27957;SDS011;15295;42.658;23.374;2023-10-08T05:11:49;14.45;;;6.45;;
27957;SDS011;15295;42.658;23.374;2023-10-08T05:14:23;12.40;;;6.50;;
27957;SDS011;15295;42.658;23.374;2023-10-08T05:16:58;15.20;;;6.38;;
27957;SDS011;15295;42.658;23.374;2023-10-08T05:19:48;12.80;;;6.28;;
27957;SDS011;15295;42.658;23.374;2023-10-08T05:22:40;12.43;;;6.28;;
27957;SDS011;15295;42.658;23.374;2023-10-08T05:25:08;13.45;;;5.90;;
27957;SDS011;15295;42.658;23.374;2023-10-08T05:27:44;11.45;;;5.55;;
27957;SDS011;15295;42.658;23.374;2023-10-08T05:30:14;13.35;;;6.30;;
27957;SDS011;15295;42.658;23.374;2023-10-08T05:33:02;16.83;;;5.88;;
27957;SDS011;15295;42.658;23.374;2023-10-08T05:35:32;15.07;;;6.18;;
27957;SDS011;15295;42.658;23.374;2023-10-08T05:38:06;22.17;;;6.53;;
27957;SDS011;15295;42.658;23.374;2023-10-08T05:40:39;15.88;;;6.95;;
27957;SDS011;15295;42.658;23.374;2023-10-08T05:43:39;14.32;;;5.93;;
27957;SDS011;15295;42.658;23.374;2023-10-08T05:46:09;14.88;;;7.20;;
27957;SDS011;15295;42.658;23.374;2023-10-08T05:51:55;12.95;;;6.22;;
27957;SDS011;15295;42.658;23.374;2023-10-08T05:56:59;12.85;;;5.88;;
27957;SDS011;15295;42.658;23.374;2023-10-08T05:59:36;16.08;;;6.15;;
27957;SDS011;15295;42.658;23.374;2023-10-08T06:02:26;12.25;;;5.70;;
27957;SDS011;15295;42.658;23.374;2023-10-08T06:05:13;17.88;;;6.43;;
27957;SDS011;15295;42.658;23.374;2023-10-08T06:07:39;12.20;;;6.10;;
27957;SDS011;15295;42.658;23.374;2023-10-08T06:13:09;16.60;;;5.90;;
27957;SDS011;15295;42.658;23.374;2023-10-08T06:18:31;14.65;;;6.43;;
27957;SDS011;15295;42.658;23.374;2023-10-08T06:21:02;11.55;;;6.07;;
27957;SDS011;15295;42.658;23.374;2023-10-08T06:23:40;16.13;;;7.22;;
27957;SDS011;15295;42.658;23.374;2023-10-08T06:26:07;14.55;;;6.50;;
27957;SDS011;15295;42.658;23.374;2023-10-08T06:28:42;13.20;;;5.43;;
27957;SDS011;15295;42.658;23.374;2023-10-08T06:31:09;12.38;;;5.78;;
27957;SDS011;15295;42.658;23.374;2023-10-08T06:33:41;13.82;;;6.80;;
27957;SDS011;15295;42.658;23.374;2023-10-08T06:36:08;18.00;;;6.65;;
27957;SDS011;15295;42.658;23.374;2023-10-08T06:41:13;14.07;;;6.25;;
27957;SDS011;15295;42.658;23.374;2023-10-08T06:43:38;13.75;;;6.13;;
27957;SDS011;15295;42.658;23.374;2023-10-08T06:46:08;14.77;;;6.03;;
27957;SDS011;15295;42.658;23.374;2023-10-08T06:51:11;11.98;;;6.72;;
27957;SDS011;15295;42.658;23.374;2023-10-08T06:53:52;15.85;;;6.15;;
27957;SDS011;15295;42.658;23.374;2023-10-08T06:56:25;12.77;;;6.22;;
27957;SDS011;15295;42.658;23.374;2023-10-08T06:58:50;12.57;;;6.22;;
27957;SDS011;15295;42.658;23.374;2023-10-08T07:01:25;13.45;;;6.18;;
27957;SDS011;15295;42.658;23.374;2023-10-08T07:04:20;13.23;;;6.88;;
27957;SDS011;15295;42.658;23.374;2023-10-08T07:06:48;13.60;;;6.38;;
27957;SDS011;15295;42.658;23.374;2023-10-08T07:09:16;17.42;;;7.57;;
27957;SDS011;15295;42.658;23.374;2023-10-08T07:11:54;17.60;;;6.70;;
27957;SDS011;15295;42.658;23.374;2023-10-08T07:14:36;16.05;;;6.82;;
27957;SDS011;15295;42.658;23.374;2023-10-08T07:17:03;12.57;;;6.82;;
27957;SDS011;15295;42.658;23.374;2023-10-08T07:19:41;16.10;;;7.18;;
27957;SDS011;15295;42.658;23.374;2023-10-08T07:22:12;16.55;;;7.20;;
27957;SDS011;15295;42.658;23.374;2023-10-08T07:24:51;12.00;;;6.78;;
27957;SDS011;15295;42.658;23.374;2023-10-08T07:27:20;13.82;;;7.22;;
27957;SDS011;15295;42.658;23.374;2023-10-08T07:29:55;18.58;;;8.02;;
27957;SDS011;15295;42.658;23.374;2023-10-08T07:34:45;20.38;;;7.63;;
27957;SDS011;15295;42.658;23.374;2023-10-08T07:37:11;18.83;;;6.97;;
27957;SDS011;15295;42.658;23.374;2023-10-08T07:39:39;23.27;;;8.10;;
27957;SDS011;15295;42.658;23.374;2023-10-08T07:42:11;19.88;;;8.60;;
27957;SDS011;15295;42.658;23.374;2023-10-08T07:44:37;18.13;;;7.90;;
27957;SDS011;15295;42.658;23.374;2023-10-08T07:47:03;18.45;;;7.70;;
27957;SDS011;15295;42.658;23.374;2023-10-08T07:49:30;13.57;;;7.60;;
27957;SDS011;15295;42.658;23.374;2023-10-08T07:51:57;18.02;;;7.15;;
27957;SDS011;15295;42.658;23.374;2023-10-08T07:54:25;18.05;;;7.97;;
27957;SDS011;15295;42.658;23.374;2023-10-08T07:59:38;17.10;;;7.97;;
27957;SDS011;15295;42.658;23.374;2023-10-08T08:02:09;19.35;;;8.35;;
27957;SDS011;15295;42.658;23.374;2023-10-08T08:04:39;23.73;;;8.35;;
27957;SDS011;15295;42.658;23.374;2023-10-08T08:07:06;17.25;;;8.15;;
27957;SDS011;15295;42.658;23.374;2023-10-08T08:09:32;16.65;;;8.10;;
27957;SDS011;15295;42.658;23.374;2023-10-08T08:12:06;18.48;;;7.80;;
27957;SDS011;15295;42.658;23.374;2023-10-08T08:14:50;14.43;;;7.95;;
27957;SDS011;15295;42.658;23.374;2023-10-08T08:17:17;21.98;;;8.27;;
27957;SDS011;15295;42.658;23.374;2023-10-08T08:19:45;20.35;;;7.55;;
27957;SDS011;15295;42.658;23.374;2023-10-08T08:22:12;14.65;;;6.18;;
27957;SDS011;15295;42.658;23.374;2023-10-08T08:24:58;12.82;;;6.88;;
27957;SDS011;15295;42.658;23.374;2023-10-08T08:27:38;15.63;;;7.28;;
27957;SDS011;15295;42.658;23.374;2023-10-08T08:30:04;17.05;;;8.23;;
27957;SDS011;15295;42.658;23.374;2023-10-08T08:32:36;17.48;;;9.90;;
27957;SDS011;15295;42.658;23.374;2023-10-08T08:37:45;14.20;;;7.13;;
27957;SDS011;15295;42.658;23.374;2023-10-08T08:40:17;18.70;;;13.52;;
27957;SDS011;15295;42.658;23.374;2023-10-08T08:42:50;18.90;;;11.27;;
27957;SDS011;15295;42.658;23.374;2023-10-08T08:45:22;12.80;;;8.35;;
27957;SDS011;15295;42.658;23.374;2023-10-08T08:48:04;15.70;;;7.20;;
27957;SDS011;15295;42.658;23.374;2023-10-08T08:50:32;13.23;;;6.10;;
27957;SDS011;15295;42.658;23.374;2023-10-08T08:52:59;12.52;;;6.32;;
27957;SDS011;15295;42.658;23.374;2023-10-08T08:55:25;11.07;;;5.30;;
27957;SDS011;15295;42.658;23.374;2023-10-08T08:57:53;11.93;;;5.95;;
27957;SDS011;15295;42.658;23.374;2023-10-08T09:00:20;13.68;;;7.38;;
27957;SDS011;15295;42.658;23.374;2023-10-08T09:02:46;16.35;;;7.13;;
27957;SDS011;15295;42.658;23.374;2023-10-08T09:05:12;18.27;;;11.90;;
27957;SDS011;15295;42.658;23.374;2023-10-08T09:07:59;12.00;;;6.78;;
27957;SDS011;15295;42.658;23.374;2023-10-08T09:10:35;14.20;;;5.10;;
27957;SDS011;15295;42.658;23.374;2023-10-08T09:13:03;15.40;;;7.38;;
27957;SDS011;15295;42.658;23.374;2023-10-08T09:15:29;12.48;;;6.43;;
27957;SDS011;15295;42.658;23.374;2023-10-08T09:17:57;11.20;;;6.78;;
27957;SDS011;15295;42.658;23.374;2023-10-08T09:20:45;24.63;;;16.52;;
27957;SDS011;15295;42.658;23.374;2023-10-08T09:23:13;10.50;;;5.80;;
27957;SDS011;15295;42.658;23.374;2023-10-08T09:25:43;11.10;;;5.85;;
27957;SDS011;15295;42.658;23.374;2023-10-08T09:28:14;14.80;;;6.95;;
27957;SDS011;15295;42.658;23.374;2023-10-08T09:30:41;10.77;;;5.97;;
27957;SDS011;15295;42.658;23.374;2023-10-08T09:33:10;10.60;;;5.32;;
27957;SDS011;15295;42.658;23.374;2023-10-08T09:35:42;9.77;;;4.60;;
27957;SDS011;15295;42.658;23.374;2023-10-08T09:38:11;11.43;;;5.28;;
27957;SDS011;15295;42.658;23.374;2023-10-08T09:40:53;10.00;;;4.68;;
27957;SDS011;15295;42.658;23.374;2023-10-08T09:43:19;9.80;;;4.43;;
27957;SDS011;15295;42.658;23.374;2023-10-08T09:45:47;15.13;;;5.32;;
27957;SDS011;15295;42.658;23.374;2023-10-08T09:48:16;15.20;;;5.03;;
27957;SDS011;15295;42.658;23.374;2023-10-08T09:50:45;13.18;;;4.97;;
27957;SDS011;15295;42.658;23.374;2023-10-08T09:53:13;13.80;;;5.93;;
27957;SDS011;15295;42.658;23.374;2023-10-08T09:55:57;11.02;;;5.10;;
27957;SDS011;15295;42.658;23.374;2023-10-08T09:58:25;11.95;;;4.70;;
27957;SDS011;15295;42.658;23.374;2023-10-08T10:00:53;9.77;;;4.70;;
27957;SDS011;15295;42.658;23.374;2023-10-08T10:03:21;10.57;;;4.85;;
27957;SDS011;15295;42.658;23.374;2023-10-08T10:05:50;11.35;;;5.13;;
27957;SDS011;15295;42.658;23.374;2023-10-08T10:08:17;10.55;;;4.90;;
27957;SDS011;15295;42.658;23.374;2023-10-08T10:10:44;9.57;;;4.95;;
27957;SDS011;15295;42.658;23.374;2023-10-08T10:13:14;8.13;;;4.38;;
27957;SDS011;15295;42.658;23.374;2023-10-08T10:15:45;9.80;;;4.60;;
27957;SDS011;15295;42.658;23.374;2023-10-08T10:23:42;10.55;;;4.68;;
27957;SDS011;15295;42.658;23.374;2023-10-08T10:26:27;9.82;;;4.60;;
27957;SDS011;15295;42.658;23.374;2023-10-08T10:31:39;9.85;;;5.47;;
27957;SDS011;15295;42.658;23.374;2023-10-08T10:34:10;7.30;;;4.22;;
27957;SDS011;15295;42.658;23.374;2023-10-08T10:36:39;32.05;;;5.03;;
27957;SDS011;15295;42.658;23.374;2023-10-08T10:39:11;6.40;;;3.28;;
27957;SDS011;15295;42.658;23.374;2023-10-08T10:41:51;15.57;;;3.92;;
27957;SDS011;15295;42.658;23.374;2023-10-08T10:47:44;13.60;;;4.05;;
27957;SDS011;15295;42.658;23.374;2023-10-08T10:50:11;7.25;;;3.67;;
27957;SDS011;15295;42.658;23.374;2023-10-08T10:52:56;10.07;;;4.20;;
27957;SDS011;15295;42.658;23.374;2023-10-08T10:55:30;6.28;;;3.80;;
27957;SDS011;15295;42.658;23.374;2023-10-08T10:57:59;11.75;;;4.47;;
27957;SDS011;15295;42.658;23.374;2023-10-08T11:00:29;10.38;;;4.50;;
27957;SDS011;15295;42.658;23.374;2023-10-08T11:02:58;10.07;;;4.28;;
27957;SDS011;15295;42.658;23.374;2023-10-08T11:05:28;10.45;;;4.57;;
27957;SDS011;15295;42.658;23.374;2023-10-08T11:07:58;12.32;;;3.70;;
27957;SDS011;15295;42.658;23.374;2023-10-08T11:10:32;12.55;;;4.03;;
27957;SDS011;15295;42.658;23.374;2023-10-08T11:12:59;12.45;;;4.07;;
27957;SDS011;15295;42.658;23.374;2023-10-08T11:18:24;8.65;;;4.18;;
27957;SDS011;15295;42.658;23.374;2023-10-08T11:21:05;10.55;;;4.63;;
27957;SDS011;15295;42.658;23.374;2023-10-08T11:23:52;8.10;;;4.10;;
27957;SDS011;15295;42.658;23.374;2023-10-08T11:26:24;9.77;;;3.70;;
27957;SDS011;15295;42.658;23.374;2023-10-08T11:31:32;7.45;;;3.63;;
27957;SDS011;15295;42.658;23.374;2023-10-08T11:34:02;9.98;;;4.05;;
27957;SDS011;15295;42.658;23.374;2023-10-08T11:36:35;9.98;;;4.47;;
27957;SDS011;15295;42.658;23.374;2023-10-08T11:39:21;9.27;;;3.50;;
27957;SDS011;15295;42.658;23.374;2023-10-08T11:41:59;16.33;;;3.60;;
27957;SDS011;15295;42.658;23.374;2023-10-08T11:44:32;10.48;;;3.72;;
27957;SDS011;15295;42.658;23.374;2023-10-08T11:47:01;10.20;;;4.25;;
27957;SDS011;15295;42.658;23.374;2023-10-08T11:49:40;13.70;;;4.10;;
27957;SDS011;15295;42.658;23.374;2023-10-08T11:52:15;9.60;;;4.32;;
27957;SDS011;15295;42.658;23.374;2023-10-08T11:54:44;15.20;;;4.63;;
27957;SDS011;15295;42.658;23.374;2023-10-08T11:57:17;12.70;;;4.15;;
27957;SDS011;15295;42.658;23.374;2023-10-08T11:59:46;9.25;;;3.72;;
27957;SDS011;15295;42.658;23.374;2023-10-08T12:02:13;19.65;;;4.43;;
27957;SDS011;15295;42.658;23.374;2023-10-08T12:04:42;14.30;;;4.68;;
27957;SDS011;15295;42.658;23.374;2023-10-08T12:07:10;11.15;;;4.13;;
27957;SDS011;15295;42.658;23.374;2023-10-08T12:09:36;14.57;;;4.22;;
27957;SDS011;15295;42.658;23.374;2023-10-08T12:12:05;17.20;;;4.75;;
27957;SDS011;15295;42.658;23.374;2023-10-08T12:14:34;13.73;;;4.53;;
27957;SDS011;15295;42.658;23.374;2023-10-08T12:17:03;8.93;;;4.00;;
27957;SDS011;15295;42.658;23.374;2023-10-08T12:19:36;16.93;;;4.80;;
27957;SDS011;15295;42.658;23.374;2023-10-08T12:22:05;9.63;;;4.20;;
27957;SDS011;15295;42.658;23.374;2023-10-08T12:24:32;13.57;;;4.60;;
27957;SDS011;15295;42.658;23.374;2023-10-08T12:26:59;10.27;;;4.45;;
27957;SDS011;15295;42.658;23.374;2023-10-08T12:29:28;16.50;;;4.75;;
27957;SDS011;15295;42.658;23.374;2023-10-08T12:31:53;17.35;;;5.00;;
27957;SDS011;15295;42.658;23.374;2023-10-08T12:34:19;12.88;;;4.53;;
27957;SDS011;15295;42.658;23.374;2023-10-08T12:36:44;12.52;;;4.10;;
27957;SDS011;15295;42.658;23.374;2023-10-08T12:39:13;15.52;;;4.65;;
27957;SDS011;15295;42.658;23.374;2023-10-08T12:41:41;14.68;;;4.53;;
27957;SDS011;15295;42.658;23.374;2023-10-08T12:44:09;17.48;;;6.53;;
27957;SDS011;15295;42.658;23.374;2023-10-08T12:46:35;14.10;;;4.38;;
27957;SDS011;15295;42.658;23.374;2023-10-08T12:49:04;17.77;;;4.50;;
27957;SDS011;15295;42.658;23.374;2023-10-08T12:51:30;13.13;;;4.15;;
27957;SDS011;15295;42.658;23.374;2023-10-08T12:53:59;12.13;;;4.30;;
27957;SDS011;15295;42.658;23.374;2023-10-08T13:01:42;17.05;;;4.45;;
27957;SDS011;15295;42.658;23.374;2023-10-08T13:09:19;9.00;;;4.00;;
27957;SDS011;15295;42.658;23.374;2023-10-08T13:11:44;18.65;;;3.92;;
27957;SDS011;15295;42.658;23.374;2023-10-08T13:16:48;16.20;;;4.20;;
27957;SDS011;15295;42.658;23.374;2023-10-08T13:21:55;17.77;;;3.60;;
27957;SDS011;15295;42.658;23.374;2023-10-08T13:27:01;17.80;;;3.95;;
27957;SDS011;15295;42.658;23.374;2023-10-08T13:29:36;15.65;;;3.60;;
27957;SDS011;15295;42.658;23.374;2023-10-08T13:32:02;12.35;;;3.75;;
27957;SDS011;15295;42.658;23.374;2023-10-08T13:34:29;15.07;;;4.05;;
27957;SDS011;15295;42.658;23.374;2023-10-08T13:36:54;15.75;;;3.67;;
27957;SDS011;15295;42.658;23.374;2023-10-08T13:39:21;11.85;;;4.30;;
27957;SDS011;15295;42.658;23.374;2023-10-08T13:41:47;15.27;;;4.80;;
27957;SDS011;15295;42.658;23.374;2023-10-08T13:44:17;14.20;;;4.13;;
27957;SDS011;15295;42.658;23.374;2023-10-08T13:46:44;20.50;;;8.32;;
27957;SDS011;15295;42.658;23.374;2023-10-08T13:49:16;14.63;;;4.30;;
27957;SDS011;15295;42.658;23.374;2023-10-08T13:51:43;12.90;;;3.97;;
27957;SDS011;15295;42.658;23.374;2023-10-08T13:54:10;19.10;;;6.50;;
27957;SDS011;15295;42.658;23.374;2023-10-08T13:56:36;11.77;;;3.90;;
27957;SDS011;15295;42.658;23.374;2023-10-08T13:59:03;11.90;;;4.22;;
27957;SDS011;15295;42.658;23.374;2023-10-08T14:01:42;14.35;;;4.35;;
27957;SDS011;15295;42.658;23.374;2023-10-08T14:06:55;13.70;;;4.32;;
27957;SDS011;15295;42.658;23.374;2023-10-08T14:09:23;11.57;;;4.20;;
27957;SDS011;15295;42.658;23.374;2023-10-08T14:12:02;12.35;;;4.32;;
27957;SDS011;15295;42.658;23.374;2023-10-08T14:14:28;13.88;;;4.40;;
27957;SDS011;15295;42.658;23.374;2023-10-08T14:16:59;9.20;;;4.43;;
27957;SDS011;15295;42.658;23.374;2023-10-08T14:19:32;13.93;;;4.63;;
27957;SDS011;15295;42.658;23.374;2023-10-08T14:22:11;14.98;;;4.18;;
27957;SDS011;15295;42.658;23.374;2023-10-08T14:24:41;10.57;;;4.20;;
27957;SDS011;15295;42.658;23.374;2023-10-08T14:27:13;15.30;;;4.82;;
27957;SDS011;15295;42.658;23.374;2023-10-08T14:29:45;15.65;;;4.60;;
27957;SDS011;15295;42.658;23.374;2023-10-08T14:32:15;12.73;;;3.80;;
27957;SDS011;15295;42.658;23.374;2023-10-08T14:34:40;14.50;;;4.45;;
27957;SDS011;15295;42.658;23.374;2023-10-08T14:47:44;19.48;;;5.70;;
27957;SDS011;15295;42.658;23.374;2023-10-08T14:52:45;18.25;;;5.35;;
27957;SDS011;15295;42.658;23.374;2023-10-08T14:55:16;22.30;;;8.02;;
27957;SDS011;15295;42.658;23.374;2023-10-08T14:57:41;23.38;;;9.30;;
27957;SDS011;15295;42.658;23.374;2023-10-08T15:00:09;18.48;;;5.75;;
27957;SDS011;15295;42.658;23.374;2023-10-08T15:02:38;15.82;;;5.75;;
27957;SDS011;15295;42.658;23.374;2023-10-08T15:05:07;33.08;;;14.93;;
27957;SDS011;15295;42.658;23.374;2023-10-08T15:12:49;23.67;;;5.95;;
27957;SDS011;15295;42.658;23.374;2023-10-08T15:23:43;17.85;;;5.18;;
27957;SDS011;15295;42.658;23.374;2023-10-08T15:26:10;20.23;;;7.22;;
27957;SDS011;15295;42.658;23.374;2023-10-08T15:28:38;17.30;;;5.28;;
27957;SDS011;15295;42.658;23.374;2023-10-08T15:33:39;14.52;;;5.57;;
27957;SDS011;15295;42.658;23.374;2023-10-08T15:36:27;14.23;;;4.47;;
27957;SDS011;15295;42.658;23.374;2023-10-08T15:38:58;16.15;;;4.75;;
27957;SDS011;15295;42.658;23.374;2023-10-08T15:41:23;18.80;;;4.57;;
27957;SDS011;15295;42.658;23.374;2023-10-08T15:43:52;13.73;;;5.95;;
27957;SDS011;15295;42.658;23.374;2023-10-08T15:46:19;23.27;;;10.15;;
27957;SDS011;15295;42.658;23.374;2023-10-08T15:48:45;15.90;;;6.28;;
27957;SDS011;15295;42.658;23.374;2023-10-08T15:51:13;11.88;;;5.13;;
27957;SDS011;15295;42.658;23.374;2023-10-08T15:53:38;19.30;;;4.80;;
27957;SDS011;15295;42.658;23.374;2023-10-08T15:56:04;22.17;;;6.90;;
27957;SDS011;15295;42.658;23.374;2023-10-08T15:58:30;12.32;;;4.57;;
27957;SDS011;15295;42.658;23.374;2023-10-08T16:01:03;13.98;;;6.75;;
27957;SDS011;15295;42.658;23.374;2023-10-08T16:03:28;18.40;;;4.85;;
27957;SDS011;15295;42.658;23.374;2023-10-08T16:05:54;15.25;;;5.32;;
27957;SDS011;15295;42.658;23.374;2023-10-08T16:08:22;25.35;;;6.70;;
27957;SDS011;15295;42.658;23.374;2023-10-08T16:11:07;15.45;;;5.07;;
27957;SDS011;15295;42.658;23.374;2023-10-08T16:13:33;23.45;;;6.63;;
27957;SDS011;15295;42.658;23.374;2023-10-08T16:15:58;18.77;;;7.00;;
27957;SDS011;15295;42.658;23.374;2023-10-08T16:18:24;19.98;;;9.23;;
27957;SDS011;15295;42.658;23.374;2023-10-08T16:20:51;16.08;;;5.95;;
27957;SDS011;15295;42.658;23.374;2023-10-08T16:23:17;21.67;;;6.90;;
27957;SDS011;15295;42.658;23.374;2023-10-08T16:25:43;18.27;;;8.35;;
27957;SDS011;15295;42.658;23.374;2023-10-08T16:28:15;17.38;;;5.43;;
27957;SDS011;15295;42.658;23.374;2023-10-08T16:30:49;14.13;;;4.47;;
27957;SDS011;15295;42.658;23.374;2023-10-08T16:33:19;14.52;;;4.40;;
27957;SDS011;15295;42.658;23.374;2023-10-08T16:35:47;15.07;;;5.00;;
27957;SDS011;15295;42.658;23.374;2023-10-08T16:38:16;16.13;;;4.45;;
27957;SDS011;15295;42.658;23.374;2023-10-08T16:40:42;10.63;;;4.80;;
27957;SDS011;15295;42.658;23.374;2023-10-08T16:43:09;14.05;;;4.53;;
27957;SDS011;15295;42.658;23.374;2023-10-08T16:45:40;16.95;;;5.75;;
27957;SDS011;15295;42.658;23.374;2023-10-08T16:48:08;13.23;;;5.10;;
27957;SDS011;15295;42.658;23.374;2023-10-08T16:50:34;12.63;;;5.35;;
27957;SDS011;15295;42.658;23.374;2023-10-08T16:52:59;16.63;;;5.10;;
27957;SDS011;15295;42.658;23.374;2023-10-08T16:55:25;16.33;;;5.15;;